Portada
METAR-TAF:

METAR-TAF

Aeropuertos :

Aeropuerto Internacional de Kuwait

Ciudad de Kuwait, Kuwait

latitud: 29-13N, longitud: 047-59E, altitud: 55 m

Observación

El informe se hizo hace 40 minutos, a las 09:00 UTC
Viento 15 kt del norte-noroeste
Temperatura 20°C
Humedad 56%
Presión 1019 hPa
Visibilidad 10 km o más
sin nubes por debajo de 1500 m y sin presencia de cumulonimbus.

METAR: OKBK 190900Z 34015KT CAVOK 20/11 Q1019 NOSIG

Hora: 12:40 (09:40 UTC)

Pronóstico

El informe se hizo hace 4 horas y 55 minutos, a las 04:45 UTC
Pronóstico válido del 19 a las 06 UTC al 20 a las 12 UTC
Viento 10 kt del norte-noroeste
Visibilidad: 7000 m

TAF: OKBK 190445Z 1906/2012 34010KT 7000 NSC

Observaciones y pronósticos meteorológicos de más de 4000 aeropuertos (mensajes METAR y TAF).

Los puntos amarillos y rojos representan las estaciones disponibles.

Ponga el ratón en el punto deseado para ver el nombre de la estación.

Haga clic para ver las observaciones y los pronósticos meteorológicos.

Para cambiar el mapa : haga clic en los botones verdes con una cruz de color negro para hacer un zoom, en el botón verde con un guión para alejar o en las flechas verdes para mapas adyacentes.


METAR-TAF: